createdAt,value
2022-09-27T00:01:08.499Z,2.30
2022-09-27T00:03:58.742Z,3.50
2022-09-27T00:06:44.476Z,3.00
2022-09-27T00:09:30.290Z,3.22
2022-09-27T00:12:15.835Z,2.08
2022-09-27T00:15:02.227Z,2.15
2022-09-27T00:17:51.970Z,1.77
2022-09-27T00:20:37.568Z,1.85
2022-09-27T00:23:23.491Z,2.80
2022-09-27T00:26:12.387Z,1.95
2022-09-27T00:28:58.299Z,3.80
2022-09-27T00:31:44.844Z,5.30
2022-09-27T00:34:30.339Z,2.90
2022-09-27T00:37:16.016Z,3.40
2022-09-27T00:40:02.219Z,2.70
2022-09-27T00:42:48.372Z,3.58
2022-09-27T00:45:33.845Z,2.40
2022-09-27T00:48:24.948Z,2.42
2022-09-27T00:51:11.037Z,4.40
2022-09-27T00:53:59.300Z,1.67
2022-09-27T00:56:46.571Z,4.22
2022-09-27T00:59:52.471Z,3.17
2022-09-27T01:02:42.603Z,3.58
2022-09-27T01:05:29.841Z,3.45
2022-09-27T01:08:15.302Z,5.22
2022-09-27T01:11:13.103Z,1.13
2022-09-27T01:14:09.411Z,5.40
2022-09-27T01:17:16.993Z,1.92
2022-09-27T01:20:11.740Z,2.60
2022-09-27T01:23:18.554Z,5.35
2022-09-27T01:26:30.172Z,5.40
2022-09-27T01:29:24.423Z,10.85
2022-09-27T01:32:22.021Z,4.93
2022-09-27T01:35:20.214Z,6.00
2022-09-27T01:38:30.490Z,9.02
2022-09-27T01:41:31.015Z,11.82
2022-09-27T01:45:03.980Z,11.40
2022-09-27T01:48:02.672Z,12.05
2022-09-27T01:51:16.445Z,10.05
2022-09-27T01:54:04.686Z,12.25
2022-09-27T01:57:21.863Z,11.85
2022-09-27T02:00:10.911Z,14.95
2022-09-27T02:03:09.548Z,16.95
2022-09-27T02:06:30.158Z,11.57
2022-09-27T02:09:39.344Z,12.48
2022-09-27T02:12:38.131Z,15.43
2022-09-27T02:15:40.962Z,15.48
2022-09-27T02:18:56.080Z,16.70
2022-09-27T02:22:06.202Z,18.52
2022-09-27T02:25:15.987Z,16.10
2022-09-27T02:28:26.349Z,17.13
2022-09-27T02:31:12.628Z,15.05
2022-09-27T02:34:06.301Z,18.80
2022-09-27T02:36:53.610Z,18.55
2022-09-27T02:39:39.554Z,16.38
2022-09-27T02:42:28.477Z,17.52
2022-09-27T02:45:17.370Z,20.17
2022-09-27T02:48:07.197Z,24.48
2022-09-27T02:51:06.007Z,27.38
2022-09-27T02:54:27.360Z,23.48
2022-09-27T02:57:48.380Z,23.83
2022-09-27T03:01:00.553Z,20.77
2022-09-27T03:04:51.174Z,23.23
2022-09-27T03:07:38.711Z,26.33
2022-09-27T03:10:28.521Z,28.05
2022-09-27T03:13:13.983Z,26.13
2022-09-27T03:16:01.924Z,31.13
2022-09-27T03:19:26.339Z,29.65
2022-09-27T03:22:30.835Z,31.40
2022-09-27T03:25:16.694Z,32.38
2022-09-27T03:28:02.626Z,35.67
2022-09-27T03:30:48.709Z,35.55
2022-09-27T03:34:10.175Z,28.90
2022-09-27T03:36:56.246Z,35.03
2022-09-27T03:39:41.667Z,39.03
2022-09-27T03:42:27.622Z,38.20
2022-09-27T03:45:13.763Z,38.40
2022-09-27T03:48:00.109Z,41.08
2022-09-27T03:50:45.951Z,30.83
2022-09-27T03:53:31.440Z,28.52
2022-09-27T03:56:17.955Z,24.88
2022-09-27T03:59:03.749Z,25.65
2022-09-27T04:02:00.448Z,23.40
2022-09-27T04:05:06.366Z,27.13
2022-09-27T04:07:52.704Z,22.40
2022-09-27T04:10:39.146Z,26.42
2022-09-27T04:13:24.923Z,25.23
2022-09-27T04:16:14.002Z,24.45
2022-09-27T04:19:10.946Z,25.60
2022-09-27T04:21:56.883Z,27.80
2022-09-27T04:24:42.683Z,26.52
2022-09-27T04:27:46.769Z,26.67
2022-09-27T04:30:33.163Z,26.05
2022-09-27T04:33:31.201Z,27.77
2022-09-27T04:36:36.799Z,28.00
2022-09-27T04:39:32.519Z,28.73
2022-09-27T04:42:18.644Z,29.90
2022-09-27T04:45:05.210Z,26.48
2022-09-27T04:47:53.123Z,28.77
2022-09-27T04:50:40.187Z,30.23
2022-09-27T04:53:26.444Z,33.72
2022-09-27T04:56:13.427Z,30.90
2022-09-27T04:58:59.091Z,31.52
2022-09-27T05:01:45.478Z,30.92
2022-09-27T05:04:47.643Z,26.85
2022-09-27T05:07:35.723Z,31.55
2022-09-27T05:10:26.612Z,29.00
2022-09-27T05:13:12.377Z,30.20
2022-09-27T05:16:03.959Z,30.15
2022-09-27T05:19:18.912Z,28.98
2022-09-27T05:22:27.455Z,33.60
2022-09-27T05:25:13.177Z,32.38
2022-09-27T05:27:59.466Z,35.53
2022-09-27T05:30:46.177Z,31.83
2022-09-27T05:33:37.488Z,38.35
2022-09-27T05:36:42.094Z,36.20
2022-09-27T05:39:29.539Z,30.40
2022-09-27T05:42:15.554Z,32.53
2022-09-27T05:45:02.143Z,29.85
2022-09-27T05:47:56.427Z,32.67
2022-09-27T05:50:42.593Z,30.13
2022-09-27T05:53:29.358Z,23.00
2022-09-27T05:56:14.838Z,25.95
2022-09-27T05:59:19.617Z,29.33
2022-09-27T06:02:24.838Z,36.72
2022-09-27T06:05:34.681Z,27.08
2022-09-27T06:08:53.640Z,29.73
2022-09-27T06:11:44.424Z,30.13
2022-09-27T06:14:32.203Z,31.77
2022-09-27T06:17:23.326Z,28.02
2022-09-27T06:20:10.153Z,27.60
2022-09-27T06:23:13.638Z,24.48
2022-09-27T06:26:08.076Z,23.98
2022-09-27T06:29:09.771Z,30.15
2022-09-27T06:31:59.624Z,26.00
2022-09-27T06:35:07.646Z,26.90
2022-09-27T06:37:53.939Z,26.27
2022-09-27T06:40:40.582Z,33.00
2022-09-27T06:43:37.315Z,27.40
2022-09-27T06:46:55.202Z,33.85
2022-09-27T06:50:05.996Z,31.10
2022-09-27T06:52:52.691Z,31.10
2022-09-27T06:55:39.849Z,31.73
2022-09-27T06:58:44.608Z,28.55
2022-09-27T07:01:57.835Z,32.65
2022-09-27T07:05:10.454Z,29.77
2022-09-27T07:08:16.211Z,28.85
2022-09-27T07:11:05.747Z,37.88
2022-09-27T07:13:51.920Z,29.98
2022-09-27T07:16:37.893Z,31.27
2022-09-27T07:19:25.102Z,35.75
2022-09-27T07:22:11.206Z,32.45
2022-09-27T07:24:57.532Z,36.17
2022-09-27T07:27:44.843Z,31.10
2022-09-27T07:30:33.062Z,32.35
2022-09-27T07:33:20.013Z,30.70
2022-09-27T07:36:10.400Z,33.17
2022-09-27T07:39:00.346Z,29.02
2022-09-27T07:41:46.792Z,31.00
2022-09-27T07:44:32.805Z,29.40
2022-09-27T07:47:39.721Z,34.25
2022-09-27T07:50:40.424Z,31.90
2022-09-27T07:53:57.711Z,32.72
2022-09-27T07:56:59.152Z,30.63
2022-09-27T07:59:45.256Z,29.25
2022-09-27T08:02:34.293Z,33.13
2022-09-27T08:05:21.333Z,28.92
2022-09-27T08:08:07.433Z,28.92
2022-09-27T08:10:52.906Z,35.50
2022-09-27T08:13:40.119Z,31.45
2022-09-27T08:16:25.739Z,28.58
2022-09-27T08:19:30.341Z,30.55
2022-09-27T08:22:21.240Z,38.20
2022-09-27T08:25:17.731Z,34.92
2022-09-27T08:28:22.720Z,31.50
2022-09-27T08:31:16.710Z,37.60
2022-09-27T08:34:02.674Z,24.33
2022-09-27T08:36:48.326Z,30.27
2022-09-27T08:39:33.865Z,30.38
2022-09-27T08:42:35.110Z,29.80
2022-09-27T08:45:30.817Z,27.55
2022-09-27T08:48:18.285Z,28.27
2022-09-27T08:51:06.885Z,24.10
2022-09-27T08:54:03.823Z,33.50
2022-09-27T08:56:49.715Z,27.80
2022-09-27T09:00:07.335Z,26.30
2022-09-27T09:02:53.704Z,23.85
2022-09-27T09:05:39.657Z,28.13
2022-09-27T09:09:02.483Z,25.67
2022-09-27T09:12:36.411Z,22.30
2022-09-27T09:15:30.920Z,25.58
2022-09-27T09:18:31.902Z,21.58
2022-09-27T09:21:43.903Z,23.75
2022-09-27T09:24:55.345Z,20.33
2022-09-27T09:27:53.819Z,20.25
2022-09-27T09:31:13.148Z,21.63
2022-09-27T09:34:09.790Z,22.05
2022-09-27T09:37:16.294Z,20.45
2022-09-27T09:40:22.088Z,23.35
2022-09-27T09:43:22.432Z,23.90
2022-09-27T09:46:17.760Z,19.17
2022-09-27T09:49:17.461Z,26.48
2022-09-27T09:52:12.982Z,26.83
2022-09-27T09:55:07.352Z,19.25
2022-09-27T09:58:19.803Z,19.33
2022-09-27T10:01:25.174Z,20.55
2022-09-27T10:04:28.097Z,20.23
2022-09-27T10:07:20.528Z,19.50
2022-09-27T10:10:11.192Z,21.25
2022-09-27T10:13:05.814Z,18.67
2022-09-27T10:16:17.783Z,19.55
2022-09-27T10:19:06.399Z,20.48
2022-09-27T10:21:53.609Z,15.77
2022-09-27T10:25:02.478Z,16.75
2022-09-27T10:28:03.422Z,16.52
2022-09-27T10:30:57.329Z,15.77
2022-09-27T10:34:02.190Z,19.85
2022-09-27T10:37:06.153Z,17.38
2022-09-27T10:39:53.693Z,13.20
2022-09-27T10:42:39.851Z,12.68
2022-09-27T10:45:34.472Z,20.38
2022-09-27T10:48:29.353Z,11.93
2022-09-27T10:51:37.826Z,14.48
2022-09-27T10:54:30.376Z,16.92
2022-09-27T10:57:21.607Z,14.45
2022-09-27T11:00:29.668Z,13.82
2022-09-27T11:03:17.410Z,11.80
2022-09-27T11:06:37.689Z,14.45
2022-09-27T11:09:26.821Z,11.60
2022-09-27T11:12:14.518Z,12.50
2022-09-27T11:15:09.689Z,12.30
2022-09-27T11:18:37.871Z,12.25
2022-09-27T11:24:37.791Z,11.82
2022-09-27T11:27:27.702Z,10.02
2022-09-27T11:30:16.800Z,9.75
2022-09-27T11:33:37.481Z,10.05
2022-09-27T11:36:45.053Z,10.18
2022-09-27T11:40:16.086Z,9.38
2022-09-27T11:43:38.286Z,10.57
2022-09-27T11:46:41.537Z,12.77
2022-09-27T11:49:49.639Z,8.60
2022-09-27T11:52:54.139Z,9.60
2022-09-27T11:55:40.107Z,8.52
2022-09-27T11:59:00.076Z,7.07
2022-09-27T12:02:23.693Z,7.63
2022-09-27T12:05:25.591Z,7.93
2022-09-27T12:08:55.185Z,6.63
2022-09-27T12:12:05.068Z,4.22
2022-09-27T12:14:56.418Z,9.50
2022-09-27T12:17:46.566Z,5.78
2022-09-27T12:20:37.354Z,6.03
2022-09-27T12:23:39.250Z,5.03
2022-09-27T12:26:45.129Z,4.15
2022-09-27T12:29:41.854Z,3.47
2022-09-27T12:32:32.201Z,6.72
2022-09-27T12:35:27.349Z,5.13
2022-09-27T12:38:18.987Z,3.13
2022-09-27T12:41:12.247Z,5.03
2022-09-27T12:44:13.309Z,2.40
2022-09-27T12:47:27.914Z,9.93
2022-09-27T12:50:30.127Z,6.30
2022-09-27T12:53:47.728Z,1.88
2022-09-27T12:56:55.127Z,4.07
2022-09-27T12:59:50.021Z,2.92
2022-09-27T13:03:14.808Z,4.55
2022-09-27T13:06:23.341Z,4.13
2022-09-27T13:09:12.349Z,4.95
2022-09-27T13:12:11.039Z,2.30
2022-09-27T13:15:06.811Z,2.05
2022-09-27T13:17:56.550Z,2.42
2022-09-27T13:21:06.698Z,3.67
2022-09-27T13:24:03.688Z,3.40
2022-09-27T13:27:01.561Z,6.07
2022-09-27T13:29:47.951Z,7.13
2022-09-27T13:32:34.479Z,7.05
2022-09-27T13:35:30.879Z,5.80
2022-09-27T13:38:24.013Z,2.58
2022-09-27T13:41:19.468Z,7.15
2022-09-27T13:44:24.219Z,4.45
2022-09-27T13:47:26.067Z,4.07
2022-09-27T13:50:26.815Z,4.43
2022-09-27T13:53:31.556Z,6.22
2022-09-27T13:56:36.609Z,5.07
2022-09-27T13:59:31.879Z,8.10
2022-09-27T14:02:55.760Z,1.88
2022-09-27T14:05:50.576Z,3.53
2022-09-27T14:08:48.367Z,1.70
2022-09-27T14:11:38.941Z,1.85
2022-09-27T14:14:28.535Z,2.30
2022-09-27T14:17:17.323Z,4.13
2022-09-27T14:20:07.243Z,2.28
2022-09-27T14:22:54.743Z,47.10
2022-09-27T14:25:51.239Z,2.08
2022-09-27T14:28:41.588Z,9.05
2022-09-27T14:32:10.355Z,3.38
2022-09-27T14:35:49.408Z,5.28
2022-09-27T14:38:39.174Z,11.55
2022-09-27T14:42:02.317Z,4.78
2022-09-27T14:44:49.429Z,4.28
2022-09-27T14:47:35.322Z,5.35
2022-09-27T14:50:24.956Z,8.55
2022-09-27T14:53:26.226Z,12.20
2022-09-27T14:56:18.266Z,8.00
2022-09-27T14:59:09.079Z,9.25
2022-09-27T15:01:55.218Z,5.95
2022-09-27T15:04:47.705Z,3.35
2022-09-27T15:07:43.319Z,3.55
2022-09-27T15:10:31.487Z,5.97
2022-09-27T15:13:19.435Z,6.28
2022-09-27T15:16:20.294Z,6.28
2022-09-27T15:19:26.854Z,7.20
2022-09-27T15:22:43.835Z,8.57
2022-09-27T15:25:36.013Z,9.55
2022-09-27T15:28:21.413Z,7.63
2022-09-27T15:31:08.279Z,7.75
2022-09-27T15:33:56.465Z,5.28
2022-09-27T15:36:56.126Z,8.00
2022-09-27T15:39:42.765Z,14.70
2022-09-27T15:42:28.368Z,7.60
2022-09-27T15:45:31.534Z,7.38
2022-09-27T15:48:20.048Z,5.88
2022-09-27T15:51:40.732Z,6.20
2022-09-27T15:54:33.203Z,9.85
2022-09-27T15:57:19.020Z,10.75
2022-09-27T16:00:05.796Z,8.00
2022-09-27T16:02:57.696Z,8.50
2022-09-27T16:05:43.970Z,10.27
2022-09-27T16:08:29.716Z,12.15
2022-09-27T16:11:17.455Z,12.77
2022-09-27T16:14:03.105Z,9.30
2022-09-27T16:16:54.344Z,8.18
2022-09-27T16:19:39.803Z,8.05
2022-09-27T16:22:25.688Z,11.93
2022-09-27T16:25:11.471Z,13.80
2022-09-27T16:28:01.723Z,8.60
2022-09-27T16:30:48.209Z,11.10
2022-09-27T16:33:35.717Z,10.45
2022-09-27T16:36:21.463Z,6.65
2022-09-27T16:39:10.676Z,7.78
2022-09-27T16:41:56.310Z,13.20
2022-09-27T16:44:41.838Z,11.10
2022-09-27T16:47:31.454Z,8.88
2022-09-27T16:50:35.847Z,10.07
2022-09-27T16:53:21.881Z,7.70
2022-09-27T16:56:07.536Z,10.13
2022-09-27T16:58:53.419Z,8.63
2022-09-27T17:01:39.789Z,12.57
2022-09-27T17:04:27.658Z,12.80
2022-09-27T17:07:13.138Z,8.15
2022-09-27T17:09:59.271Z,7.50
2022-09-27T17:12:49.132Z,8.30
2022-09-27T17:15:38.900Z,18.88
2022-09-27T17:18:24.533Z,9.80
2022-09-27T17:21:13.182Z,10.73
2022-09-27T17:23:59.015Z,9.20
2022-09-27T17:26:44.959Z,7.60
2022-09-27T17:29:30.990Z,13.27
2022-09-27T17:32:16.831Z,11.93
2022-09-27T17:35:02.747Z,8.02
2022-09-27T17:37:50.645Z,11.38
2022-09-27T17:40:36.266Z,10.68
2022-09-27T17:43:21.733Z,10.52
2022-09-27T17:46:09.466Z,11.90
2022-09-27T17:49:15.532Z,8.30
2022-09-27T17:52:01.365Z,10.00
2022-09-27T17:54:46.825Z,11.07
2022-09-27T17:57:32.523Z,11.98
2022-09-27T18:00:20.337Z,7.95
2022-09-27T18:03:06.141Z,10.30
2022-09-27T18:05:51.799Z,7.93
2022-09-27T18:08:38.125Z,8.30
2022-09-27T18:11:28.465Z,15.13
2022-09-27T18:14:14.314Z,11.50
2022-09-27T18:17:00.054Z,12.07
2022-09-27T18:19:45.585Z,10.07
2022-09-27T18:22:31.370Z,11.80
2022-09-27T18:25:16.827Z,11.55
2022-09-27T18:28:02.530Z,6.70
2022-09-27T18:30:48.287Z,13.45
2022-09-27T18:33:34.800Z,16.10
2022-09-27T18:36:22.988Z,8.63
2022-09-27T18:39:20.124Z,6.70
2022-09-27T18:42:05.803Z,11.40
2022-09-27T18:44:51.875Z,12.80
2022-09-27T18:47:37.589Z,9.32
2022-09-27T18:50:23.044Z,11.02
2022-09-27T18:53:09.170Z,7.07
2022-09-27T18:55:54.808Z,9.48
2022-09-27T18:58:42.294Z,10.10
2022-09-27T19:01:27.886Z,13.10
2022-09-27T19:04:20.418Z,11.23
2022-09-27T19:07:08.192Z,10.32
2022-09-27T19:09:53.646Z,8.40
2022-09-27T19:12:40.486Z,11.57
2022-09-27T19:15:26.683Z,7.57
2022-09-27T19:18:14.723Z,14.45
2022-09-27T19:21:10.275Z,13.88
2022-09-27T19:23:56.985Z,9.77
2022-09-27T19:26:42.829Z,12.65
2022-09-27T19:29:28.382Z,9.70
2022-09-27T19:32:13.900Z,14.82
2022-09-27T19:34:59.410Z,8.27
2022-09-27T19:37:45.155Z,10.82
2022-09-27T19:40:31.830Z,9.20
2022-09-27T19:43:17.403Z,11.63
2022-09-27T19:46:08.221Z,11.32
2022-09-27T19:48:55.252Z,10.70
2022-09-27T19:51:40.856Z,12.15
2022-09-27T19:54:26.309Z,11.57
2022-09-27T19:57:13.642Z,17.55
2022-09-27T19:59:59.227Z,8.50
2022-09-27T20:02:45.008Z,8.38
2022-09-27T20:05:30.537Z,12.35
2022-09-27T20:08:16.090Z,9.07
2022-09-27T20:11:06.523Z,8.35
2022-09-27T20:13:53.279Z,6.97
2022-09-27T20:16:41.451Z,7.68
2022-09-27T20:19:27.915Z,10.43
2022-09-27T20:22:13.767Z,11.65
2022-09-27T20:24:59.306Z,9.45
2022-09-27T20:27:45.259Z,11.10
2022-09-27T20:30:32.403Z,7.65
2022-09-27T20:33:36.790Z,9.82
2022-09-27T20:36:31.232Z,10.80
2022-09-27T20:39:17.291Z,9.27
2022-09-27T20:42:03.462Z,6.47
2022-09-27T20:44:53.980Z,12.27
2022-09-27T20:47:40.282Z,8.05
2022-09-27T20:50:25.870Z,8.35
2022-09-27T20:53:11.364Z,12.07
2022-09-27T20:55:59.266Z,9.02
2022-09-27T20:58:45.927Z,7.30
2022-09-27T21:01:32.821Z,7.45
2022-09-27T21:04:19.785Z,8.80
2022-09-27T21:07:05.472Z,10.07
2022-09-27T21:09:51.046Z,13.68
2022-09-27T21:12:36.697Z,10.10
2022-09-27T21:15:22.463Z,12.65
2022-09-27T21:18:07.926Z,10.18
2022-09-27T21:21:03.005Z,6.97
2022-09-27T21:23:57.062Z,8.68
2022-09-27T21:26:43.010Z,12.57
2022-09-27T21:29:28.666Z,14.73
2022-09-27T21:32:14.406Z,7.88
2022-09-27T21:35:00.355Z,7.00
2022-09-27T21:37:47.550Z,9.77
2022-09-27T21:40:33.887Z,7.43
2022-09-27T21:43:19.584Z,8.05
2022-09-27T21:46:15.484Z,8.50
2022-09-27T21:49:02.095Z,12.27
2022-09-27T21:51:48.071Z,6.18
2022-09-27T21:54:33.735Z,5.15
2022-09-27T21:57:19.533Z,7.00
2022-09-27T22:00:06.047Z,7.85
2022-09-27T22:02:57.375Z,11.73
2022-09-27T22:05:48.216Z,8.13
2022-09-27T22:08:34.030Z,6.68
2022-09-27T22:11:24.117Z,8.85
2022-09-27T22:14:11.541Z,11.73
2022-09-27T22:16:57.146Z,7.30
2022-09-27T22:19:42.681Z,12.45
2022-09-27T22:22:28.631Z,10.75
2022-09-27T22:25:14.234Z,8.82
2022-09-27T22:28:00.077Z,5.47
2022-09-27T22:30:45.824Z,7.57
2022-09-27T22:33:31.424Z,9.00
2022-09-27T22:36:17.667Z,9.15
2022-09-27T22:39:03.585Z,9.50
2022-09-27T22:41:50.197Z,8.00
2022-09-27T22:44:35.647Z,10.82
2022-09-27T22:47:21.369Z,9.35
2022-09-27T22:50:07.495Z,8.85
2022-09-27T22:52:52.813Z,6.10
2022-09-27T22:55:38.438Z,8.30
2022-09-27T22:58:24.675Z,8.15
2022-09-27T23:01:29.385Z,8.27
2022-09-27T23:04:15.290Z,10.55
2022-09-27T23:07:00.876Z,9.82
2022-09-27T23:09:46.745Z,11.52
2022-09-27T23:12:32.414Z,5.47
2022-09-27T23:15:18.897Z,10.15
2022-09-27T23:18:06.468Z,6.35
2022-09-27T23:20:52.030Z,6.22
2022-09-27T23:23:42.710Z,6.03
2022-09-27T23:26:29.187Z,8.20
2022-09-27T23:29:14.894Z,6.40
2022-09-27T23:32:00.868Z,6.35
2022-09-27T23:34:46.658Z,9.80
2022-09-27T23:37:32.649Z,8.65
2022-09-27T23:40:17.978Z,10.85
2022-09-27T23:43:04.512Z,4.07
2022-09-27T23:45:50.870Z,4.07
2022-09-27T23:48:36.812Z,8.75
2022-09-27T23:51:22.802Z,17.40
2022-09-27T23:54:08.492Z,9.30
2022-09-27T23:56:54.160Z,9.63
2022-09-27T23:59:40.195Z,9.00
